Atmautluak, Alaska
Current Conditions -  °F | °C
As of 8:53 PM on Wednesday 28 Jan 2015 (Local Time) from PABE Reporting Station
Broken Clouds Broken Clouds  
Wind Chill: -28°   Ceiling: 12000
Heat Index: -4°   Visibility: 10mi
Dew Point: -12°   Wind: 21mph
Humidity: 69%   Direction: 10°N
Pressure: 30.29"   Gusts: NA
Location:  60.7494°N, 161.727°W
Report Text: PABE 290553Z 01018KT 10SM BKN120 M20/M24 A3029 RMK AO2 PK WND 01027/0542 SLP263 T12001244 11189 21200 53018
Loading
Personal Weather Stations






























Interactive Weather Map New forecast layout! Learn more

10-Day Weather Forecast

Advertisements
Track Severe Weather on mobile